Time;durP1;ratioP1;P1;durP2;ratioP2;P2;SDS_P1;SDS_P2;PMS_P1;PMS_P2;Temp;Humidity;BMP_temperature;BMP_pressure;BME280_temperature;BME280_humidity;BME280_pressure;Samples;Min_cycle;Max_cycle;Signal;HPM_P1;HPM_P2
2023/02/23 16:25:18;;;;;;;31.33;11.45;;;8.30;99.90;;;;;;5103039;27;20339;-62
2023/02/23 16:27:45;;;;;;;26.45;11.50;;;8.20;99.90;;;;;;5107054;28;20065;-62
2023/02/23 16:30:31;;;;;;;34.15;11.95;;;8.30;99.90;;;;;;5102747;28;20017;-62
2023/02/23 16:33:19;;;;;;;32.25;12.43;;;8.40;99.90;;;;;;5106027;28;20038;-62
2023/02/23 16:35:51;;;;;;;32.90;11.75;;;8.50;99.90;;;;;;5104724;28;20028;-61
2023/02/23 16:38:38;;;;;;;29.33;11.73;;;8.60;99.90;;;;;;5112165;28;20074;-62
2023/02/23 16:41:17;;;;;;;34.85;11.25;;;8.60;99.90;;;;;;5097702;28;20020;-62
2023/02/23 16:43:47;;;;;;;27.77;10.55;;;8.70;99.90;;;;;;5106714;28;20036;-62
2023/02/23 16:46:12;;;;;;;30.20;10.88;;;8.80;99.90;;;;;;5107742;28;20443;-63
2023/02/23 16:48:39;;;;;;;30.83;11.50;;;8.80;99.90;;;;;;5107245;28;20049;-61
2023/02/23 16:51:14;;;;;;;32.60;10.98;;;8.80;99.90;;;;;;5105743;28;20032;-61
2023/02/23 16:53:41;;;;;;;27.23;10.05;;;8.80;99.90;;;;;;5099117;28;20028;-62
2023/02/23 16:56:11;;;;;;;31.75;11.38;;;8.80;99.90;;;;;;5107462;28;20102;-62
2023/02/23 16:58:38;;;;;;;33.30;12.95;;;8.80;99.90;;;;;;5111444;28;20045;-61
2023/02/23 17:01:04;;;;;;;21.40;8.65;;;8.80;99.90;;;;;;5128476;28;20019;-62
2023/02/23 17:03:31;;;;;;;19.77;8.60;;;8.70;99.90;;;;;;5126284;28;20420;-62
2023/02/23 17:05:56;;;;;;;19.38;7.28;;;8.50;99.90;;;;;;5114653;28;20085;-63
2023/02/23 17:08:23;;;;;;;16.95;6.47;;;8.30;99.90;;;;;;5107203;28;20530;-62
2023/02/23 17:10:51;;;;;;;22.65;7.40;;;8.20;99.90;;;;;;5100758;28;20683;-62
2023/02/23 17:13:19;;;;;;;14.50;5.07;;;8.10;99.90;;;;;;5087504;28;20123;-61
2023/02/23 17:15:50;;;;;;;25.63;7.05;;;7.90;99.90;;;;;;5087784;28;20066;-62
2023/02/23 17:18:17;;;;;;;14.98;5.00;;;7.90;99.90;;;;;;5104771;28;20024;-63
2023/02/23 17:20:44;;;;;;;14.80;4.72;;;7.80;99.90;;;;;;5106460;28;20000;-63
2023/02/23 17:23:09;;;;;;;13.63;5.43;;;7.80;99.90;;;;;;5106301;28;20425;-61
2023/02/23 17:25:35;;;;;;;16.48;5.97;;;7.80;99.90;;;;;;5106599;28;20145;-62
2023/02/23 17:28:01;;;;;;;16.88;5.95;;;7.70;99.90;;;;;;5106137;28;20044;-61
2023/02/23 17:30:28;;;;;;;13.07;4.80;;;7.70;99.90;;;;;;5107418;28;20384;-61
2023/02/23 17:32:56;;;;;;;12.38;5.13;;;7.70;99.90;;;;;;5102832;28;20032;-60
2023/02/23 17:35:22;;;;;;;27.65;5.93;;;7.70;99.90;;;;;;5087176;28;20017;-62
2023/02/23 17:37:48;;;;;;;21.42;7.47;;;7.70;99.90;;;;;;5105760;28;20029;-62
2023/02/23 17:40:25;;;;;;;9.88;5.90;;;7.60;99.90;;;;;;5104832;27;20029;-61
2023/02/23 17:42:51;;;;;;;13.13;5.03;;;7.60;99.90;;;;;;5071727;28;20032;-62
2023/02/23 17:45:17;;;;;;;12.52;4.53;;;7.60;99.90;;;;;;5074724;28;20044;-61
2023/02/23 17:47:43;;;;;;;19.08;6.43;;;7.60;99.90;;;;;;5079930;28;20024;-61
2023/02/23 17:50:09;;;;;;;24.52;7.47;;;7.50;99.90;;;;;;5093258;28;20081;-61
2023/02/23 17:52:35;;;;;;;27.13;9.32;;;7.50;99.90;;;;;;5092059;28;20024;-62
2023/02/23 17:55:01;;;;;;;18.25;5.95;;;7.40;99.90;;;;;;5093480;28;20030;-61
2023/02/23 17:57:29;;;;;;;15.43;5.13;;;7.40;99.90;;;;;;5092997;28;20044;-62
2023/02/23 17:59:55;;;;;;;16.40;5.25;;;7.30;99.90;;;;;;5092316;28;20115;-61
2023/02/23 18:02:21;;;;;;;14.82;4.75;;;7.30;99.90;;;;;;5095559;28;20059;-61
2023/02/23 18:04:49;;;;;;;18.33;4.30;;;7.10;99.90;;;;;;5101567;28;20485;-61
2023/02/23 18:07:16;;;;;;;17.98;3.97;;;7.10;99.90;;;;;;5083817;28;20023;-60
2023/02/23 18:09:42;;;;;;;15.68;3.50;;;7.00;99.90;;;;;;5113580;28;20091;-62
2023/02/23 18:12:08;;;;;;;14.63;5.22;;;6.90;99.90;;;;;;5113051;28;20023;-62
2023/02/23 18:14:34;;;;;;;16.25;3.35;;;6.80;99.90;;;;;;5111198;28;20020;-63
2023/02/23 18:17:00;;;;;;;13.13;3.00;;;6.80;99.90;;;;;;5108251;28;20023;-61
2023/02/23 18:19:26;;;;;;;15.13;3.33;;;6.70;99.90;;;;;;5092858;28;20024;-62
2023/02/23 18:21:55;;;;;;;15.73;3.50;;;6.70;99.90;;;;;;5090628;28;20104;-61
2023/02/23 18:24:24;;;;;;;32.55;8.07;;;6.70;99.90;;;;;;5100453;28;20489;-62
2023/02/23 18:26:50;;;;;;;31.80;9.60;;;6.70;99.90;;;;;;5095354;28;20020;-62
2023/02/23 18:29:19;;;;;;;17.55;6.82;;;6.70;99.90;;;;;;5090769;28;20031;-62
2023/02/23 18:31:46;;;;;;;20.48;5.88;;;6.70;99.90;;;;;;5086939;28;20081;-62
2023/02/23 18:34:12;;;;;;;19.25;4.30;;;6.70;99.90;;;;;;5090970;28;20058;-62
2023/02/23 18:36:39;;;;;;;12.93;5.10;;;6.60;99.90;;;;;;5093187;28;20103;-62
2023/02/23 18:39:07;;;;;;;15.32;3.33;;;6.60;99.90;;;;;;5092703;28;20016;-63
2023/02/23 18:41:33;;;;;;;12.48;3.95;;;6.50;99.90;;;;;;5092461;28;20469;-62
2023/02/23 18:44:01;;;;;;;13.90;3.22;;;6.50;99.90;;;;;;5092428;28;20061;-62
2023/02/23 18:46:27;;;;;;;20.98;3.78;;;6.50;99.90;;;;;;5093121;28;20469;-62
2023/02/23 18:48:54;;;;;;;17.50;3.75;;;6.50;99.90;;;;;;5104348;28;20023;-62
2023/02/23 18:51:21;;;;;;;18.08;3.40;;;6.50;99.90;;;;;;5092779;28;20020;-62
2023/02/23 18:53:48;;;;;;;13.88;3.45;;;6.50;99.90;;;;;;5092527;28;20024;-62
2023/02/23 18:56:21;;;;;;;15.63;4.15;;;6.50;99.90;;;;;;5092423;28;20053;-62
2023/02/23 18:58:48;;;;;;;12.93;2.95;;;6.50;99.90;;;;;;5087687;28;20024;-62
2023/02/23 19:01:17;;;;;;;20.08;2.97;;;6.50;99.90;;;;;;5092491;28;20050;-61
2023/02/23 19:03:44;;;;;;;13.38;2.67;;;6.40;99.90;;;;;;5092126;28;20023;-62
2023/02/23 19:06:10;;;;;;;17.25;3.90;;;6.40;99.90;;;;;;5093137;28;20047;-62
2023/02/23 19:08:35;;;;;;;12.73;2.60;;;6.30;99.90;;;;;;5105149;28;20072;-62
2023/02/23 19:11:01;;;;;;;12.75;3.20;;;6.20;99.90;;;;;;5100944;28;20016;-62
2023/02/23 19:13:27;;;;;;;9.80;2.15;;;6.20;99.90;;;;;;5092881;28;20441;-62
2023/02/23 19:15:53;;;;;;;14.13;2.60;;;6.20;99.90;;;;;;5087454;28;20028;-63
2023/02/23 19:18:20;;;;;;;13.25;2.22;;;6.20;99.90;;;;;;5091051;28;20030;-63
2023/02/23 19:20:46;;;;;;;13.23;2.42;;;6.20;99.90;;;;;;5091228;28;20020;-62
2023/02/23 19:23:12;;;;;;;11.73;2.17;;;6.10;99.90;;;;;;5109023;28;20097;-62
2023/02/23 19:25:38;;;;;;;11.40;2.40;;;6.10;99.90;;;;;;5112220;28;20023;-62
2023/02/23 19:28:07;;;;;;;11.30;2.83;;;6.10;99.90;;;;;;5112980;28;20032;-61
2023/02/23 19:30:33;;;;;;;12.48;3.50;;;6.00;99.90;;;;;;5107836;28;20028;-62
2023/02/23 19:32:58;;;;;;;6.00;2.17;;;6.00;99.90;;;;;;5092309;28;20024;-62
2023/02/23 19:35:24;;;;;;;9.43;2.53;;;5.90;99.90;;;;;;5091201;28;20021;-62
2023/02/23 19:37:51;;;;;;;9.40;2.20;;;5.90;99.90;;;;;;5094528;28;20023;-62
2023/02/23 19:40:21;;;;;;;14.60;2.63;;;5.80;99.90;;;;;;5091811;28;20031;-62
2023/02/23 19:42:49;;;;;;;13.07;2.28;;;5.70;99.90;;;;;;5092383;28;20016;-62
2023/02/23 19:45:16;;;;;;;12.65;2.25;;;5.60;99.90;;;;;;5089750;28;20048;-62
2023/02/23 19:47:42;;;;;;;9.05;1.88;;;5.50;99.90;;;;;;5092737;28;20058;-62
2023/02/23 19:50:11;;;;;;;12.32;2.67;;;5.40;99.90;;;;;;5092116;28;20024;-61
2023/02/23 19:52:37;;;;;;;10.93;2.03;;;5.30;99.90;;;;;;5093649;28;20058;-62
2023/02/23 19:55:06;;;;;;;7.00;1.90;;;5.30;99.90;;;;;;5091104;28;20149;-61
2023/02/23 19:57:32;;;;;;;10.60;2.15;;;5.20;99.90;;;;;;5083053;28;20047;-61
2023/02/23 19:59:58;;;;;;;9.40;1.60;;;5.10;99.90;;;;;;5090026;28;20465;-62
2023/02/23 20:02:24;;;;;;;9.18;2.47;;;5.10;99.90;;;;;;5097154;28;20023;-61
2023/02/23 20:04:50;;;;;;;11.73;2.58;;;5.00;99.90;;;;;;5112282;28;20027;-61
2023/02/23 20:07:16;;;;;;;9.43;2.08;;;4.90;99.90;;;;;;5112140;28;20020;-61
2023/02/23 20:09:42;;;;;;;13.85;2.00;;;4.80;99.90;;;;;;5112628;28;20028;-61
2023/02/23 20:12:07;;;;;;;11.52;2.53;;;4.80;99.90;;;;;;5112407;28;20544;-61
2023/02/23 20:14:33;;;;;;;8.57;2.33;;;4.70;99.90;;;;;;5110264;28;20076;-61
2023/02/23 20:16:59;;;;;;;10.27;2.83;;;4.70;99.90;;;;;;5103856;28;20031;-61
2023/02/23 20:19:25;;;;;;;6.55;1.98;;;4.70;99.90;;;;;;5092462;28;20035;-61
2023/02/23 20:21:51;;;;;;;9.68;2.10;;;4.70;99.90;;;;;;5090312;28;20024;-62
2023/02/23 20:24:18;;;;;;;9.88;3.25;;;4.60;99.90;;;;;;5091549;28;20052;-61
2023/02/23 20:26:44;;;;;;;9.27;2.33;;;4.60;99.90;;;;;;5090191;28;20070;-62
2023/02/23 20:29:14;;;;;;;10.80;2.88;;;4.50;99.90;;;;;;5092116;28;20337;-61
2023/02/23 20:31:49;;;;;;;8.85;2.50;;;4.50;99.90;;;;;;5091735;28;20024;-61
2023/02/23 20:34:16;;;;;;;12.13;4.15;;;4.50;99.90;;;;;;5091104;28;20059;-61
2023/02/23 20:36:44;;;;;;;13.30;3.20;;;4.50;99.90;;;;;;5092022;28;20035;-62
2023/02/23 20:39:10;;;;;;;10.98;2.90;;;4.40;99.90;;;;;;5097836;28;20055;-61
2023/02/23 20:41:36;;;;;;;9.50;3.28;;;4.40;99.90;;;;;;5067981;28;20024;-62
2023/02/23 20:44:02;;;;;;;8.68;3.47;;;4.30;99.90;;;;;;5079623;28;20556;-62
2023/02/23 20:46:29;;;;;;;13.77;4.78;;;4.30;99.90;;;;;;5089659;28;20047;-61
2023/02/23 20:48:55;;;;;;;18.85;6.93;;;4.30;99.90;;;;;;5089843;28;20028;-61
2023/02/23 20:51:21;;;;;;;28.33;10.60;;;4.30;99.90;;;;;;5091402;28;20027;-61
